Time;durP1;ratioP1;P1;durP2;ratioP2;P2;SDS_P1;SDS_P2;PMS_P1;PMS_P2;Temp;Humidity;BMP_temperature;BMP_pressure;BME280_temperature;BME280_humidity;BME280_pressure;Samples;Min_cycle;Max_cycle;Signal;HPM_P1;HPM_P2
2024/01/23 00:02:19;;;;;;;131.33;5.10;;;;;;;20.65;47.76;99275.81;7296421;19;129498;-44
2024/01/23 00:04:45;;;;;;;222.25;8.48;;;;;;;20.89;47.72;99259.66;7296482;19;129775;-41
2024/01/23 00:07:10;;;;;;;192.73;7.45;;;;;;;21.74;45.48;99264.47;7295848;19;130871;-42
2024/01/23 00:09:35;;;;;;;204.43;8.20;;;;;;;22.03;44.90;99279.16;7293976;19;131491;-38
2024/01/23 00:12:02;;;;;;;180.95;7.35;;;;;;;22.05;45.15;99283.25;7297052;19;130722;-37
2024/01/23 00:14:27;;;;;;;202.93;7.82;;;;;;;21.86;45.38;99284.25;7296342;19;129935;-43
2024/01/23 00:16:52;;;;;;;124.78;5.00;;;;;;;21.74;45.81;99281.94;7295253;19;129363;-40
2024/01/23 00:19:18;;;;;;;219.60;8.65;;;;;;;21.54;46.83;99289.09;7294488;19;130710;-37
2024/01/23 00:21:43;;;;;;;226.68;8.98;;;;;;;21.28;47.32;99277.69;7294218;19;129466;-39
2024/01/23 00:24:09;;;;;;;192.77;7.43;;;;;;;21.17;47.31;99280.47;7296625;19;133637;-43
2024/01/23 00:26:34;;;;;;;220.07;8.73;;;;;;;21.10;47.82;99284.66;7294593;19;131301;-42
2024/01/23 00:29:00;;;;;;;194.07;7.38;;;;;;;21.06;48.09;99283.28;7293155;19;130341;-37
2024/01/23 00:31:26;;;;;;;215.90;8.43;;;;;;;20.90;48.13;99283.03;7296820;19;132376;-40
2024/01/23 00:33:52;;;;;;;231.93;9.18;;;;;;;20.81;48.98;99278.66;7295866;19;129310;-43
2024/01/23 00:36:17;;;;;;;169.63;6.93;;;;;;;20.55;48.87;99268.00;7292953;19;130580;-39
2024/01/23 00:38:43;;;;;;;199.23;7.70;;;;;;;20.45;49.47;99282.03;7293834;19;130326;-36
2024/01/23 00:41:08;;;;;;;198.15;7.70;;;;;;;20.27;49.58;99294.16;7290196;19;130468;-39
2024/01/23 00:43:33;;;;;;;202.25;8.00;;;;;;;20.13;49.93;99297.16;7294663;19;130140;-44
2024/01/23 00:45:59;;;;;;;179.13;6.90;;;;;;;20.01;50.00;99293.03;7295497;19;130710;-43
2024/01/23 00:48:24;;;;;;;88.13;3.60;;;;;;;19.96;50.44;99284.78;7293621;19;130431;-37
2024/01/23 00:50:50;;;;;;;213.00;8.10;;;;;;;19.93;50.05;99295.50;7292345;19;130758;-37
2024/01/23 00:53:15;;;;;;;185.55;7.35;;;;;;;19.90;50.83;99301.78;7296653;19;130702;-40
2024/01/23 00:55:40;;;;;;;160.43;6.22;;;;;;;19.77;50.28;99269.09;7295898;19;129894;-41
2024/01/23 00:58:06;;;;;;;179.52;7.05;;;;;;;19.91;50.47;99297.41;7292801;19;130115;-45
2024/01/23 01:00:31;;;;;;;159.80;6.05;;;;;;;19.96;50.74;99297.81;7292068;19;129454;-44
2024/01/23 01:02:57;;;;;;;180.75;7.10;;;;;;;19.98;50.41;99303.72;7294313;19;129039;-37
2024/01/23 01:05:25;;;;;;;106.07;4.30;;;;;;;20.03;49.98;99298.94;7292661;19;132436;-41
2024/01/23 01:07:50;;;;;;;171.60;6.60;;;;;;;20.00;50.54;99294.00;7294742;19;131957;-38
2024/01/23 01:10:15;;;;;;;253.38;10.05;;;;;;;19.91;50.50;99293.03;7292617;19;130538;-39
2024/01/23 01:12:41;;;;;;;163.73;6.72;;;;;;;19.88;50.97;99297.69;7295058;19;129116;-39
2024/01/23 01:15:07;;;;;;;163.75;6.15;;;;;;;19.77;50.78;99289.97;7293553;19;130095;-43
2024/01/23 01:17:32;;;;;;;190.93;7.17;;;;;;;19.80;51.56;99292.31;7293696;19;130984;-45
2024/01/23 01:19:58;;;;;;;244.88;9.07;;;;;;;19.65;51.65;99275.41;7293931;19;129940;-39
2024/01/23 01:22:23;;;;;;;183.85;7.05;;;;;;;19.79;51.52;99294.09;7293409;19;129656;-37
2024/01/23 01:24:49;;;;;;;193.80;7.75;;;;;;;19.60;51.47;99273.22;7294176;19;130844;-43
2024/01/23 01:27:14;;;;;;;201.23;7.80;;;;;;;19.78;51.77;99291.63;7292946;19;130344;-42
2024/01/23 01:29:39;;;;;;;179.48;6.90;;;;;;;19.76;52.17;99293.53;7292097;19;130182;-39
2024/01/23 01:32:05;;;;;;;181.15;6.82;;;;;;;19.73;51.98;99299.03;7293304;19;129661;-38
2024/01/23 01:34:31;;;;;;;181.40;7.07;;;;;;;19.70;52.57;99294.91;7293374;19;130843;-39
2024/01/23 01:36:57;;;;;;;179.43;6.77;;;;;;;19.69;51.76;99292.41;7292571;19;130805;-45
2024/01/23 01:39:22;;;;;;;201.83;7.50;;;;;;;19.70;51.97;99294.91;7291005;19;129909;-39
2024/01/23 01:41:54;;;;;;;200.45;7.82;;;;;;;19.67;51.86;99304.78;7294183;19;129941;-39
2024/01/23 01:44:21;;;;;;;114.22;4.53;;;;;;;19.67;52.05;99299.59;7293423;19;132471;-41
2024/01/23 01:46:47;;;;;;;215.07;8.77;;;;;;;19.67;51.02;99294.38;7289297;19;131100;-41
2024/01/23 01:49:14;;;;;;;213.73;8.27;;;;;;;19.66;51.04;99303.13;7292203;19;131191;-39
2024/01/23 01:51:40;;;;;;;214.35;8.30;;;;;;;19.67;51.21;99313.44;7291477;19;132271;-39
2024/01/23 01:54:05;;;;;;;185.43;7.28;;;;;;;19.68;51.24;99311.66;7288800;19;129802;-42
2024/01/23 01:56:31;;;;;;;181.73;6.78;;;;;;;19.71;50.54;99314.81;7291607;19;130870;-37
2024/01/23 01:58:59;;;;;;;180.70;7.05;;;;;;;19.73;50.94;99309.47;7291473;19;129485;-40
2024/01/23 02:01:27;;;;;;;158.90;6.05;;;;;;;19.78;50.74;99307.28;7293942;19;129454;-38
2024/01/23 02:03:52;;;;;;;247.02;9.68;;;;;;;19.82;50.86;99313.84;7289829;19;130161;-42
2024/01/23 02:06:18;;;;;;;240.15;9.85;;;;;;;19.90;49.75;99321.84;7292350;19;131334;-41
2024/01/23 02:08:44;;;;;;;246.18;9.85;;;;;;;20.14;49.50;99317.06;7291577;19;129245;-40
2024/01/23 02:11:10;;;;;;;201.23;8.07;;;;;;;20.44;49.19;99324.78;7290185;19;129379;-39
2024/01/23 02:13:35;;;;;;;162.65;6.57;;;;;;;20.67;48.60;99328.75;7292449;19;130119;-43
2024/01/23 02:16:02;;;;;;;208.05;8.07;;;;;;;20.79;48.13;99319.78;7292113;19;133224;-39
2024/01/23 02:18:28;;;;;;;172.13;6.70;;;;;;;20.79;48.48;99317.19;7292974;19;130591;-40
2024/01/23 02:20:53;;;;;;;203.85;7.82;;;;;;;20.78;47.97;99325.97;7290194;19;130392;-43
2024/01/23 02:23:19;;;;;;;141.90;5.72;;;;;;;20.77;48.18;99324.31;7290576;19;130103;-41
2024/01/23 02:25:44;;;;;;;244.07;9.18;;;;;;;20.72;48.58;99329.16;7291825;19;130335;-39
2024/01/23 02:28:11;;;;;;;200.32;7.88;;;;;;;20.62;48.61;99321.34;7292554;19;129955;-41
2024/01/23 02:30:36;;;;;;;173.95;6.85;;;;;;;20.60;48.92;99327.66;7290508;19;129489;-44
2024/01/23 02:33:05;;;;;;;159.65;5.97;;;;;;;20.52;49.17;99330.13;7291715;19;130563;-40
2024/01/23 02:35:31;;;;;;;228.00;8.70;;;;;;;20.47;49.39;99337.56;7292140;19;130872;-39
2024/01/23 02:37:56;;;;;;;222.18;8.80;;;;;;;20.40;50.11;99346.91;7292225;19;132311;-41
2024/01/23 02:40:22;;;;;;;170.00;6.65;;;;;;;20.21;49.73;99315.59;7288830;19;130737;-39
2024/01/23 02:42:47;;;;;;;139.48;5.85;;;;;;;20.21;50.47;99347.72;7290554;19;129280;-38
2024/01/23 02:45:13;;;;;;;234.50;8.95;;;;;;;20.03;49.88;99343.28;7291831;19;130457;-39
2024/01/23 02:47:38;;;;;;;163.55;6.25;;;;;;;19.91;50.70;99339.16;7292298;19;130498;-41
2024/01/23 02:50:04;;;;;;;152.48;5.95;;;;;;;19.71;50.92;99322.66;7290118;19;130185;-43
2024/01/23 02:52:31;;;;;;;146.80;5.70;;;;;;;19.85;51.05;99344.91;7291354;19;130899;-38
2024/01/23 02:54:58;;;;;;;279.20;11.35;;;;;;;19.82;50.43;99334.72;7290785;19;130306;-42
2024/01/23 02:57:23;;;;;;;;;;;;;;;19.84;52.02;99343.25;7292894;19;130885;-39
2024/01/23 02:59:48;;;;;;;148.25;5.82;;;;;;;19.71;50.80;99321.81;7294927;19;129883;-41
2024/01/23 03:02:14;;;;;;;169.45;6.57;;;;;;;19.85;50.48;99344.91;7299210;19;129228;-36
2024/01/23 03:04:39;;;;;;;197.10;7.43;;;;;;;19.89;50.78;99341.06;7298240;19;130252;-42
2024/01/23 03:07:04;;;;;;;182.05;6.93;;;;;;;19.96;50.75;99350.00;7294046;19;130423;-44
2024/01/23 03:09:30;;;;;;;192.27;7.40;;;;;;;19.95;50.38;99343.16;7296229;19;131167;-40
2024/01/23 03:11:55;;;;;;;223.48;9.15;;;;;;;19.96;50.57;99347.41;7297781;19;130170;-41
2024/01/23 03:14:20;;;;;;;190.57;7.23;;;;;;;19.89;50.35;99356.72;7299202;19;130395;-41
2024/01/23 03:16:46;;;;;;;204.27;8.23;;;;;;;19.73;51.48;99335.53;7297246;19;129170;-43
2024/01/23 03:19:11;;;;;;;169.90;6.63;;;;;;;19.78;51.54;99344.63;7295759;19;129772;-44
2024/01/23 03:21:36;;;;;;;206.50;7.85;;;;;;;19.70;51.56;99341.03;7297095;19;130269;-39
2024/01/23 03:24:02;;;;;;;189.88;7.20;;;;;;;19.75;51.63;99368.34;7296094;19;130637;-39
2024/01/23 03:26:27;;;;;;;206.93;8.07;;;;;;;19.59;52.07;99348.94;7298009;19;130218;-42
2024/01/23 03:28:52;;;;;;;167.20;6.95;;;;;;;19.72;51.54;99367.81;7297026;19;131293;-40
2024/01/23 03:31:18;;;;;;;231.68;8.93;;;;;;;19.74;51.51;99373.69;7296418;19;130203;-46
2024/01/23 03:33:46;;;;;;;93.63;3.90;;;;;;;19.67;51.72;99370.00;7298733;19;130426;-39
2024/01/23 03:36:12;;;;;;;222.82;8.95;;;;;;;19.69;52.10;99386.31;7296783;19;129539;-43
2024/01/23 03:38:37;;;;;;;156.65;5.93;;;;;;;19.69;52.14;99386.31;7296297;19;130226;-42
2024/01/23 03:41:02;;;;;;;235.25;9.13;;;;;;;19.70;52.02;99403.63;7291544;19;131867;-44
2024/01/23 03:43:28;;;;;;;181.98;6.80;;;;;;;19.69;52.57;99407.19;7296526;19;130879;-42
2024/01/23 03:45:53;;;;;;;160.32;6.15;;;;;;;19.70;51.94;99414.88;7295579;19;129186;-39
2024/01/23 03:48:19;;;;;;;172.73;6.75;;;;;;;19.76;51.85;99392.66;7296654;19;132967;-39
2024/01/23 03:50:44;;;;;;;218.68;8.45;;;;;;;19.78;51.66;99395.97;7293930;19;130617;-43
2024/01/23 03:53:10;;;;;;;101.45;4.03;;;;;;;19.83;51.15;99388.56;7297236;19;130418;-39
2024/01/23 03:55:35;;;;;;;187.52;7.10;;;;;;;19.68;51.43;99379.47;7297498;19;130253;-37
2024/01/23 03:58:01;;;;;;;173.63;6.72;;;;;;;19.78;51.38;99406.41;7296418;19;129350;-44
2024/01/23 04:00:28;;;;;;;127.72;5.18;;;;;;;19.64;51.33;99380.66;7295248;19;130541;-43
2024/01/23 04:02:54;;;;;;;109.40;4.47;;;;;;;19.79;50.77;99397.59;7295945;19;131145;-38
2024/01/23 04:05:19;;;;;;;145.23;5.57;;;;;;;19.72;50.54;99397.31;7296935;19;130546;-37
2024/01/23 04:07:46;;;;;;;171.32;6.53;;;;;;;19.69;50.99;99408.00;7295129;19;129902;-45
2024/01/23 04:10:12;;;;;;;199.93;7.72;;;;;;;19.70;50.65;99419.28;7293990;19;130129;-41
2024/01/23 04:12:37;;;;;;;117.03;4.60;;;;;;;19.70;50.88;99424.50;7296057;19;130361;-39
2024/01/23 04:15:04;;;;;;;189.75;7.30;;;;;;;19.87;50.74;99421.25;7296005;19;129998;-44
2024/01/23 04:17:29;;;;;;;198.75;7.65;;;;;;;19.80;50.24;99394.06;7297021;19;130941;-39
2024/01/23 04:19:55;;;;;;;263.42;10.73;;;;;;;19.94;50.13;99432.81;7294104;19;129380;-45
2024/01/23 04:22:20;;;;;;;181.60;7.05;;;;;;;19.95;50.49;99450.13;7294626;19;130327;-40
2024/01/23 04:24:46;;;;;;;156.02;5.97;;;;;;;19.95;50.63;99437.09;7296373;19;129703;-45
2024/01/23 04:27:12;;;;;;;219.18;8.23;;;;;;;19.98;50.18;99450.66;7295422;19;129905;-41
2024/01/23 04:29:37;;;;;;;205.57;7.88;;;;;;;20.04;50.58;99454.53;7294740;19;131257;-41
2024/01/23 04:32:03;;;;;;;205.85;8.05;;;;;;;20.01;50.53;99449.59;7295528;19;130368;-39
2024/01/23 04:34:28;;;;;;;161.20;6.22;;;;;;;19.96;50.87;99444.78;7294804;19;129345;-42
2024/01/23 04:36:54;;;;;;;197.65;7.68;;;;;;;19.91;50.93;99451.34;7294464;19;129833;-43
2024/01/23 04:39:19;;;;;;;105.50;4.10;;;;;;;20.00;50.79;99474.03;7295680;19;129548;-40
2024/01/23 04:41:44;;;;;;;199.10;7.65;;;;;;;19.86;50.94;99456.13;7295582;19;131062;-36
2024/01/23 04:44:10;;;;;;;191.40;7.55;;;;;;;20.02;50.45;99482.53;7292497;19;129351;-37
2024/01/23 04:46:36;;;;;;;188.35;7.05;;;;;;;20.00;50.35;99474.84;7293986;19;130456;-44
2024/01/23 04:49:01;;;;;;;172.55;6.80;;;;;;;19.84;50.31;99484.13;7294843;19;130097;-42
2024/01/23 04:51:27;;;;;;;161.88;6.15;;;;;;;19.77;50.41;99489.03;7293423;19;131542;-38
2024/01/23 04:53:52;;;;;;;233.27;9.48;;;;;;;19.78;51.06;99497.69;7294131;19;129652;-40
2024/01/23 04:56:18;;;;;;;167.57;6.43;;;;;;;19.77;50.83;99509.06;7294737;19;129268;-44
2024/01/23 04:58:44;;;;;;;172.07;6.55;;;;;;;19.62;50.61;99484.31;7294137;19;130376;-42
2024/01/23 05:01:09;;;;;;;170.80;6.45;;;;;;;19.76;50.53;99512.63;7292193;19;129110;-37
2024/01/23 05:03:34;;;;;;;207.38;8.13;;;;;;;19.76;50.62;99500.44;7294909;19;132543;-39
2024/01/23 05:06:00;;;;;;;178.80;7.05;;;;;;;19.77;50.63;99511.66;7294811;19;130098;-43
2024/01/23 05:08:25;;;;;;;164.02;6.32;;;;;;;19.71;50.44;99513.03;7294572;19;130976;-44
2024/01/23 05:10:51;;;;;;;91.82;3.53;;;;;;;19.76;51.11;99543.94;7291268;19;131725;-42
2024/01/23 05:13:16;;;;;;;198.52;7.55;;;;;;;19.71;50.68;99517.41;7294146;19;130574;-41
2024/01/23 05:15:41;;;;;;;220.05;8.25;;;;;;;19.91;50.59;99540.03;7292545;19;129351;-38
2024/01/23 05:18:07;;;;;;;150.80;5.88;;;;;;;19.93;50.15;99551.97;7292374;19;131955;-38
2024/01/23 05:20:33;;;;;;;173.10;6.70;;;;;;;19.95;50.17;99554.50;7292166;19;130449;-42
2024/01/23 05:22:59;;;;;;;233.35;9.18;;;;;;;19.91;50.92;99553.09;7288902;19;129177;-38
2024/01/23 05:25:25;;;;;;;176.70;6.65;;;;;;;19.77;50.64;99541.19;7294428;19;129042;-38
2024/01/23 05:27:50;;;;;;;153.82;5.82;;;;;;;19.87;50.61;99567.31;7291018;19;130204;-43
2024/01/23 05:30:16;;;;;;;166.60;6.65;;;;;;;19.82;51.32;99566.88;7290082;19;131235;-42
2024/01/23 05:32:43;;;;;;;281.38;10.60;;;;;;;19.81;50.96;99560.03;7293350;19;130134;-41
2024/01/23 05:35:08;;;;;;;210.23;8.48;;;;;;;19.76;51.47;99583.06;7294386;19;129219;-39
2024/01/23 05:37:34;;;;;;;166.38;6.30;;;;;;;19.63;51.35;99574.63;7290555;19;130208;-45
2024/01/23 05:39:59;;;;;;;120.65;4.93;;;;;;;19.72;51.79;99589.50;7290750;19;130309;-42
2024/01/23 05:42:24;;;;;;;221.23;8.57;;;;;;;19.69;52.11;99585.34;7293807;19;129530;-39
2024/01/23 05:44:50;;;;;;;418.03;17.67;;;;;;;19.69;52.21;99587.13;7288377;19;129445;-42
2024/01/23 05:47:16;;;;;;;173.90;6.60;;;;;;;19.68;51.71;99598.53;7291256;19;131664;-43
2024/01/23 05:49:41;;;;;;;190.38;7.38;;;;;;;19.67;51.70;99596.88;7291017;19;130106;-40
2024/01/23 05:52:07;;;;;;;219.98;8.90;;;;;;;19.71;52.02;99612.16;7292147;19;130213;-38
2024/01/23 05:54:32;;;;;;;138.20;5.30;;;;;;;19.76;51.68;99609.16;7292891;19;129563;-38
2024/01/23 05:56:57;;;;;;;288.85;11.55;;;;;;;19.73;51.17;99612.84;7290141;19;129900;-39
2024/01/23 05:59:23;;;;;;;238.50;8.95;;;;;;;19.79;51.48;99614.09;7287509;19;130450;-38
2024/01/23 06:01:48;;;;;;;207.82;8.07;;;;;;;19.79;51.42;99617.56;7288815;19;130369;-35
2024/01/23 06:04:13;;;;;;;184.85;7.28;;;;;;;19.77;51.15;99621.22;7288458;19;133411;-39
2024/01/23 06:06:41;;;;;;;204.20;7.70;;;;;;;19.78;50.91;99635.94;7291266;19;130014;-38
2024/01/23 06:09:10;;;;;;;242.05;9.38;;;;;;;19.71;51.32;99640.84;7289862;19;131288;-38
2024/01/23 06:11:38;;;;;;;215.50;8.25;;;;;;;19.76;50.58;99638.69;7291950;19;129740;-37
2024/01/23 06:14:03;;;;;;;197.70;8.13;;;;;;;19.81;50.72;99638.28;7288812;19;129475;-41
2024/01/23 06:16:29;;;;;;;292.50;12.23;;;;;;;19.80;50.04;99639.25;7285507;19;131236;-38
2024/01/23 06:18:55;;;;;;;190.55;7.25;;;;;;;19.85;50.78;99634.47;7291277;19;130359;-37
2024/01/23 06:21:20;;;;;;;173.02;6.80;;;;;;;19.70;50.51;99612.28;7289870;19;131251;-39
2024/01/23 06:23:46;;;;;;;153.73;5.75;;;;;;;19.83;50.92;99678.97;7289355;19;129259;-39
2024/01/23 06:26:11;;;;;;;272.55;10.75;;;;;;;19.76;50.40;99662.16;7291202;19;131179;-38
2024/01/23 06:28:37;;;;;;;225.35;8.50;;;;;;;19.84;51.03;99674.56;7288980;19;130454;-35
2024/01/23 06:31:02;;;;;;;165.30;6.53;;;;;;;19.91;50.88;99675.72;7288408;19;129442;-34
2024/01/23 06:33:27;;;;;;;198.85;7.60;;;;;;;19.88;51.11;99684.63;7290654;19;130243;-40
2024/01/23 06:35:53;;;;;;;240.48;9.15;;;;;;;19.87;50.51;99695.16;7296330;19;129970;-37
2024/01/23 06:38:19;;;;;;;194.38;7.63;;;;;;;19.90;51.06;99700.16;7299856;19;131146;-38
2024/01/23 06:40:45;;;;;;;198.30;7.80;;;;;;;19.89;51.38;99711.53;7295510;19;129303;-44
2024/01/23 06:43:10;;;;;;;151.77;5.93;;;;;;;19.75;51.15;99702.22;7296516;19;129110;-43
2024/01/23 06:45:35;;;;;;;251.68;9.88;;;;;;;19.88;51.09;99730.75;7297676;19;130116;-39
2024/01/23 06:48:01;;;;;;;198.80;8.07;;;;;;;19.71;51.35;99703.44;7300009;19;134331;-39
2024/01/23 06:50:29;;;;;;;224.55;8.95;;;;;;;19.77;51.35;99729.00;7293627;19;129077;-45
2024/01/23 06:52:54;;;;;;;92.32;3.53;;;;;;;19.71;51.30;99726.91;7296648;19;131452;-37
2024/01/23 06:55:20;;;;;;;313.35;12.63;;;;;;;19.57;51.24;99721.16;7295177;19;130049;-42
2024/01/23 06:57:45;;;;;;;185.13;7.22;;;;;;;19.71;50.69;99754.78;7295307;19;129674;-43
2024/01/23 07:00:11;;;;;;;184.90;7.35;;;;;;;19.69;51.31;99761.88;7293425;19;129296;-41
2024/01/23 07:02:37;;;;;;;196.40;7.80;;;;;;;19.65;51.17;99756.06;7294657;19;131708;-39
2024/01/23 07:05:02;;;;;;;240.73;9.75;;;;;;;19.68;50.83;99771.50;7292646;19;130505;-41
2024/01/23 07:07:28;;;;;;;121.30;4.63;;;;;;;19.71;50.76;99791.28;7295163;19;130795;-41
2024/01/23 07:09:53;;;;;;;203.77;7.80;;;;;;;19.71;50.69;99797.34;7295466;19;129696;-43
2024/01/23 07:12:19;;;;;;;249.77;9.70;;;;;;;19.76;50.20;99794.34;7289680;19;129965;-41
2024/01/23 07:14:44;;;;;;;240.30;9.68;;;;;;;19.71;50.62;99791.28;7292491;19;131168;-39
2024/01/23 07:17:10;;;;;;;246.50;10.02;;;;;;;19.85;50.41;99793.63;7292796;19;130366;-42
2024/01/23 07:19:35;;;;;;;115.65;4.55;;;;;;;19.96;50.01;99810.06;7291914;19;132431;-40
2024/01/23 07:22:01;;;;;;;216.90;9.88;;;;;;;19.93;50.00;99806.88;7292854;19;129147;-42
2024/01/23 07:24:26;;;;;;;151.63;5.80;;;;;;;19.90;50.36;99825.41;7291457;19;130222;-39
2024/01/23 07:26:52;;;;;;;238.60;9.50;;;;;;;19.90;50.62;99828.00;7290865;19;131285;-44
2024/01/23 07:29:17;;;;;;;215.10;8.73;;;;;;;19.93;50.81;99838.19;7294050;19;130720;-38
2024/01/23 07:31:42;;;;;;;215.05;8.43;;;;;;;19.92;50.94;99846.94;7294305;19;129178;-44
2024/01/23 07:34:09;;;;;;;144.43;5.50;;;;;;;19.98;50.20;99856.91;7296056;19;130313;-43
2024/01/23 07:36:35;;;;;;;169.90;6.53;;;;;;;19.99;50.81;99858.56;7291108;19;131165;-40
2024/01/23 07:39:00;;;;;;;185.77;7.05;;;;;;;19.83;50.77;99842.50;7297053;19;129438;-42
2024/01/23 07:41:26;;;;;;;264.63;10.30;;;;;;;19.93;50.43;99869.50;7291249;19;131285;-41
2024/01/23 07:43:51;;;;;;;187.40;7.45;;;;;;;19.86;51.02;99847.44;7295179;19;131496;-39
2024/01/23 07:46:17;;;;;;;243.32;10.05;;;;;;;19.97;50.72;99870.91;7291570;19;130522;-39
2024/01/23 07:48:43;;;;;;;188.73;7.25;;;;;;;19.73;50.76;99852.00;7293889;19;131049;-44
2024/01/23 07:51:08;;;;;;;206.90;8.27;;;;;;;19.63;50.99;99845.84;7293316;19;129358;-42
2024/01/23 07:53:34;;;;;;;169.13;6.53;;;;;;;19.73;51.27;99872.84;7297334;19;130453;-37
2024/01/23 07:56:00;;;;;;;228.97;9.07;;;;;;;19.65;51.06;99870.03;7292714;19;131090;-39
2024/01/23 07:58:25;;;;;;;178.15;7.07;;;;;;;19.70;51.07;99889.56;7293491;19;131133;-44
2024/01/23 08:00:51;;;;;;;220.38;9.68;;;;;;;19.73;51.11;99889.34;7291538;19;129205;-44
2024/01/23 08:03:16;;;;;;;197.43;7.65;;;;;;;19.71;51.16;99890.41;7292393;19;130248;-42
2024/01/23 08:05:41;;;;;;;170.07;6.53;;;;;;;19.75;50.91;99887.41;7294527;19;131508;-38
2024/01/23 08:08:07;;;;;;;254.50;10.32;;;;;;;19.77;50.85;99895.13;7289693;19;131332;-41
2024/01/23 08:10:34;;;;;;;205.45;8.43;;;;;;;19.76;50.34;99893.47;7292205;19;129895;-42
2024/01/23 08:13:00;;;;;;;167.50;6.53;;;;;;;19.74;50.50;99884.94;7296576;19;130210;-40
2024/01/23 08:15:25;;;;;;;129.43;5.10;;;;;;;19.80;50.29;99885.28;7294659;19;131091;-42
2024/01/23 08:17:50;;;;;;;240.60;9.38;;;;;;;19.91;50.66;99889.66;7294758;19;131387;-39
2024/01/23 08:20:16;;;;;;;235.68;10.15;;;;;;;19.93;50.13;99883.34;7294682;19;133012;-40
2024/01/23 08:22:41;;;;;;;189.93;7.57;;;;;;;19.93;50.42;99895.59;7291135;19;130873;-43
2024/01/23 08:25:08;;;;;;;86.53;3.47;;;;;;;19.99;50.03;99906.38;7291771;19;130438;-37
2024/01/23 08:27:33;;;;;;;255.10;9.98;;;;;;;20.01;49.96;99906.25;7294536;19;131487;-38
2024/01/23 08:29:58;;;;;;;167.23;6.63;;;;;;;19.96;50.41;99898.78;7290282;19;132962;-40
2024/01/23 08:32:25;;;;;;;201.15;8.15;;;;;;;19.96;50.85;99909.22;7294023;19;130114;-40
2024/01/23 08:34:50;;;;;;;117.30;4.53;;;;;;;19.97;50.92;99902.22;7291431;19;130255;-39
2024/01/23 08:37:16;;;;;;;292.48;11.68;;;;;;;20.02;50.31;99900.06;7293578;19;129066;-41
2024/01/23 08:39:42;;;;;;;227.95;9.15;;;;;;;19.93;50.91;99906.84;7290078;19;133401;-40
2024/01/23 08:42:07;;;;;;;161.10;6.50;;;;;;;19.92;51.18;99914.78;7292594;19;130813;-39
2024/01/23 08:44:33;;;;;;;180.57;7.22;;;;;;;19.96;50.64;99921.44;7292196;19;131168;-39
2024/01/23 08:46:58;;;;;;;245.48;9.68;;;;;;;19.74;51.02;99916.25;7290958;19;130928;-39
2024/01/23 08:49:24;;;;;;;173.35;7.13;;;;;;;19.80;50.98;99936.66;7291280;19;129143;-43
2024/01/23 08:51:49;;;;;;;186.13;7.40;;;;;;;19.62;50.93;99906.78;7291888;19;130582;-43
2024/01/23 08:54:19;;;;;;;246.80;10.18;;;;;;;19.74;51.16;99937.94;7293258;19;131258;-39
2024/01/23 08:56:46;;;;;;;196.10;8.88;;;;;;;19.76;50.79;99930.00;7291256;19;129575;-43
2024/01/23 08:59:11;;;;;;;205.35;8.02;;;;;;;19.77;51.04;99929.88;7293011;19;129872;-38
2024/01/23 09:01:36;;;;;;;141.93;5.60;;;;;;;19.78;51.06;99935.94;7292527;19;130349;-42
2024/01/23 09:04:02;;;;;;;164.85;6.35;;;;;;;19.75;50.38;99923.94;7292494;19;129127;-40
2024/01/23 09:06:27;;;;;;;296.15;12.00;;;;;;;19.76;50.58;99950.88;7288641;19;130180;-40
2024/01/23 09:08:52;;;;;;;210.15;8.30;;;;;;;19.77;50.98;99949.91;7288893;19;133108;-41
2024/01/23 09:11:18;;;;;;;203.00;8.02;;;;;;;19.77;50.54;99947.31;7288386;19;130750;-38
2024/01/23 09:13:43;;;;;;;211.50;8.35;;;;;;;19.84;50.64;99944.09;7292486;19;130827;-42
2024/01/23 09:16:09;;;;;;;186.88;7.32;;;;;;;19.87;50.70;99951.69;7291184;19;129417;-43
2024/01/23 09:18:35;;;;;;;270.58;11.05;;;;;;;19.93;50.73;99963.44;7287726;19;130917;-38
2024/01/23 09:21:02;;;;;;;248.05;9.85;;;;;;;19.96;50.76;99969.25;7290181;19;132705;-38
2024/01/23 09:23:28;;;;;;;255.88;9.93;;;;;;;19.93;50.78;99963.44;7291616;19;130479;-42
2024/01/23 09:25:54;;;;;;;127.80;4.85;;;;;;;19.95;50.91;99972.78;7293918;19;129307;-41
2024/01/23 09:28:19;;;;;;;191.98;7.55;;;;;;;19.97;50.91;99980.50;7294259;19;130965;-40
2024/01/23 09:30:45;;;;;;;150.60;8.50;;;;;;;19.86;50.85;99955.25;7290395;19;131280;-39
2024/01/23 09:33:10;;;;;;;206.18;7.93;;;;;;;19.97;51.02;99964.84;7291667;19;130440;-43
2024/01/23 09:35:36;;;;;;;191.70;7.65;;;;;;;19.94;51.04;99980.75;7291455;19;129194;-41
2024/01/23 09:38:01;;;;;;;182.52;7.43;;;;;;;19.95;50.57;99998.88;7290371;19;129358;-40
2024/01/23 09:40:27;;;;;;;118.95;4.80;;;;;;;19.93;50.88;99992.16;7289823;19;130512;-37
2024/01/23 09:42:55;;;;;;;253.70;9.45;;;;;;;19.97;51.25;100011.81;7288439;19;130487;-44
2024/01/23 09:45:27;;;;;;;263.05;11.10;;;;;;;19.87;50.84;100019.53;7288062;19;130155;-41
2024/01/23 09:47:52;;;;;;;202.43;10.05;;;;;;;19.78;50.99;100011.59;7289087;19;131681;-42
2024/01/23 09:50:18;;;;;;;235.55;9.48;;;;;;;19.74;51.42;100004.94;7288652;19;129113;-42
2024/01/23 09:52:45;;;;;;;190.80;7.45;;;;;;;19.72;50.74;100012.06;7288987;19;130440;-40
2024/01/23 09:55:10;;;;;;;;;;;;;;;19.73;51.87;100011.09;7293268;19;129016;-44
2024/01/23 09:57:38;;;;;;;224.85;8.82;;;;;;;19.76;51.15;100011.72;7290238;19;129197;-40
2024/01/23 10:00:07;;;;;;;180.80;7.22;;;;;;;19.76;50.38;100018.69;7290198;19;130477;-38
2024/01/23 10:02:34;;;;;;;214.23;8.50;;;;;;;19.77;50.67;100013.34;7292266;19;130843;-38
2024/01/23 10:05:00;;;;;;;172.73;6.75;;;;;;;19.76;50.38;100021.31;7288155;19;129464;-44
2024/01/23 10:07:26;;;;;;;190.93;7.63;;;;;;;19.75;50.42;100025.69;7289538;19;133519;-39
2024/01/23 10:09:59;;;;;;;193.90;7.88;;;;;;;19.76;51.29;100010.88;7290498;19;131428;-40
2024/01/23 10:12:24;;;;;;;260.85;10.73;;;;;;;19.79;51.04;100034.09;7288863;19;131295;-45
2024/01/23 10:14:49;;;;;;;210.95;8.20;;;;;;;19.89;50.44;100022.03;7285199;19;130910;-43
2024/01/23 10:17:15;;;;;;;179.00;7.30;;;;;;;19.96;50.12;100025.81;7291859;19;130697;-38
2024/01/23 10:19:40;;;;;;;203.30;7.90;;;;;;;19.93;50.25;100016.44;7287603;19;129557;-40
2024/01/23 10:22:06;;;;;;;222.60;8.63;;;;;;;19.95;50.54;100035.41;7292623;19;130453;-39
2024/01/23 10:24:32;;;;;;;171.25;6.57;;;;;;;19.98;50.38;100032.56;7291487;19;129753;-42
2024/01/23 10:26:57;;;;;;;159.63;6.27;;;;;;;19.92;50.81;100029.59;7288369;19;129222;-39
2024/01/23 10:29:22;;;;;;;189.20;7.60;;;;;;;19.90;51.20;100031.53;7290363;19;130206;-37
2024/01/23 10:31:48;;;;;;;238.05;9.52;;;;;;;19.78;50.75;100006.38;7289520;19;131137;-41
2024/01/23 10:34:13;;;;;;;180.68;7.30;;;;;;;19.87;50.81;100036.94;7291725;19;129095;-44
2024/01/23 10:36:42;;;;;;;82.88;3.25;;;;;;;19.70;51.14;100025.19;7287373;19;129676;-41
2024/01/23 10:39:08;;;;;;;179.38;6.95;;;;;;;19.80;51.14;100036.59;7292635;19;131482;-39
2024/01/23 10:41:34;;;;;;;204.53;8.03;;;;;;;19.81;51.60;100053.09;7287140;19;133303;-39
2024/01/23 10:44:02;;;;;;;201.80;8.25;;;;;;;19.74;51.89;100038.84;7290452;19;130096;-38
2024/01/23 10:46:29;;;;;;;181.02;7.65;;;;;;;19.70;51.15;100032.22;7288333;19;131762;-40
2024/01/23 10:48:55;;;;;;;230.40;9.07;;;;;;;19.73;50.85;100035.44;7291097;19;131582;-39
2024/01/23 10:51:21;;;;;;;230.68;9.23;;;;;;;19.82;51.01;100042.53;7288725;19;129538;-37
2024/01/23 10:54:01;;;;;;;201.53;7.77;;;;;;;19.79;51.32;100041.94;7291213;19;129260;-43
2024/01/23 10:56:37;;;;;;;240.57;10.10;;;;;;;19.81;51.15;100050.47;7289907;19;129515;-39
2024/01/23 10:59:11;;;;;;;159.23;6.38;;;;;;;19.79;51.40;100049.75;7290040;19;130204;-39
2024/01/23 11:01:42;;;;;;;195.57;7.55;;;;;;;19.77;50.73;100047.28;7286468;19;130478;-40
2024/01/23 11:04:08;;;;;;;196.02;7.65;;;;;;;19.80;50.92;100046.22;7289556;19;129580;-37